New Mount Pleasant, Indiana
Current Conditions -  °F | °C
As of 9:53 AM on Sunday 21 Dec 2014 (Local Time) from KMIE Reporting Station
Haze Haze  
Wind Chill: 22°   Ceiling: 5500
Heat Index: 28°   Visibility: 4mi
Dew Point: 24°   Wind: 6mph
Humidity: 85%   Direction: 170°S
Pressure: 30.3"   Gusts: NA
Location:  40.4312°N, 85.0058°W
Report Text: KMIE 211453Z 17005KT 4SM BR OVC055 M02/M04 A3030 RMK AO2 SLP267 T10221044 53003
Loading
Personal Weather Stations






























Interactive Weather Map New forecast layout! Learn more

10-Day Weather Forecast

Advertisements
Track Severe Weather on mobile